sensor_id;sensor_type;location;lat;lon;timestamp;P1;durP1;ratioP1;P2;durP2;ratioP2
7845;SDS011;3968;51.424;6.788;2023-02-28T00:00:04;8.87;;;5.77;;
7845;SDS011;3968;51.424;6.788;2023-02-28T00:02:36;12.43;;;6.17;;
7845;SDS011;3968;51.424;6.788;2023-02-28T00:05:03;8.37;;;5.77;;
7845;SDS011;3968;51.424;6.788;2023-02-28T00:07:30;9.17;;;5.60;;
7845;SDS011;3968;51.424;6.788;2023-02-28T00:09:56;7.03;;;5.63;;
7845;SDS011;3968;51.424;6.788;2023-02-28T00:12:22;9.03;;;5.63;;
7845;SDS011;3968;51.424;6.788;2023-02-28T00:14:48;8.83;;;5.67;;
7845;SDS011;3968;51.424;6.788;2023-02-28T00:17:14;10.87;;;5.80;;
7845;SDS011;3968;51.424;6.788;2023-02-28T00:19:39;9.30;;;5.57;;
7845;SDS011;3968;51.424;6.788;2023-02-28T00:22:05;9.57;;;5.90;;
7845;SDS011;3968;51.424;6.788;2023-02-28T00:24:30;7.70;;;5.63;;
7845;SDS011;3968;51.424;6.788;2023-02-28T00:26:56;9.07;;;6.10;;
7845;SDS011;3968;51.424;6.788;2023-02-28T00:29:22;9.77;;;5.93;;
7845;SDS011;3968;51.424;6.788;2023-02-28T00:31:47;9.70;;;5.80;;
7845;SDS011;3968;51.424;6.788;2023-02-28T00:34:13;9.60;;;6.13;;
7845;SDS011;3968;51.424;6.788;2023-02-28T00:36:38;11.67;;;6.20;;
7845;SDS011;3968;51.424;6.788;2023-02-28T00:39:05;8.97;;;6.10;;
7845;SDS011;3968;51.424;6.788;2023-02-28T00:41:31;7.87;;;5.87;;
7845;SDS011;3968;51.424;6.788;2023-02-28T00:43:57;9.20;;;5.77;;
7845;SDS011;3968;51.424;6.788;2023-02-28T00:46:22;10.03;;;6.27;;
7845;SDS011;3968;51.424;6.788;2023-02-28T00:48:48;8.17;;;5.57;;
7845;SDS011;3968;51.424;6.788;2023-02-28T00:51:13;11.10;;;5.40;;
7845;SDS011;3968;51.424;6.788;2023-02-28T00:53:39;9.37;;;5.30;;
7845;SDS011;3968;51.424;6.788;2023-02-28T00:56:05;11.37;;;6.07;;
7845;SDS011;3968;51.424;6.788;2023-02-28T00:58:30;8.40;;;5.50;;
7845;SDS011;3968;51.424;6.788;2023-02-28T01:00:56;9.17;;;5.80;;
7845;SDS011;3968;51.424;6.788;2023-02-28T01:03:22;9.67;;;5.47;;
7845;SDS011;3968;51.424;6.788;2023-02-28T01:05:47;6.10;;;5.20;;
7845;SDS011;3968;51.424;6.788;2023-02-28T01:08:13;6.63;;;5.13;;
7845;SDS011;3968;51.424;6.788;2023-02-28T01:10:40;8.50;;;5.60;;
7845;SDS011;3968;51.424;6.788;2023-02-28T01:13:06;6.90;;;5.80;;
7845;SDS011;3968;51.424;6.788;2023-02-28T01:15:31;6.97;;;5.17;;
7845;SDS011;3968;51.424;6.788;2023-02-28T01:17:57;8.10;;;5.30;;
7845;SDS011;3968;51.424;6.788;2023-02-28T01:20:23;8.87;;;5.53;;
7845;SDS011;3968;51.424;6.788;2023-02-28T01:22:49;12.90;;;5.90;;
7845;SDS011;3968;51.424;6.788;2023-02-28T01:25:15;8.33;;;4.73;;
7845;SDS011;3968;51.424;6.788;2023-02-28T01:27:40;8.47;;;5.47;;
7845;SDS011;3968;51.424;6.788;2023-02-28T01:30:07;10.63;;;5.13;;
7845;SDS011;3968;51.424;6.788;2023-02-28T01:32:35;8.40;;;5.43;;
7845;SDS011;3968;51.424;6.788;2023-02-28T01:35:00;8.53;;;5.37;;
7845;SDS011;3968;51.424;6.788;2023-02-28T01:37:27;7.23;;;5.03;;
7845;SDS011;3968;51.424;6.788;2023-02-28T01:39:53;10.10;;;5.60;;
7845;SDS011;3968;51.424;6.788;2023-02-28T01:42:18;7.33;;;5.50;;
7845;SDS011;3968;51.424;6.788;2023-02-28T01:48:02;5.73;;;4.47;;
7845;SDS011;3968;51.424;6.788;2023-02-28T01:50:31;7.17;;;4.87;;
7845;SDS011;3968;51.424;6.788;2023-02-28T01:53:04;7.53;;;5.00;;
7845;SDS011;3968;51.424;6.788;2023-02-28T01:55:35;6.37;;;4.73;;
7845;SDS011;3968;51.424;6.788;2023-02-28T01:58:02;9.37;;;4.80;;
7845;SDS011;3968;51.424;6.788;2023-02-28T02:00:31;6.13;;;4.87;;
7845;SDS011;3968;51.424;6.788;2023-02-28T02:02:58;8.30;;;5.20;;
7845;SDS011;3968;51.424;6.788;2023-02-28T02:05:27;7.73;;;4.53;;
7845;SDS011;3968;51.424;6.788;2023-02-28T02:07:56;6.40;;;4.33;;
7845;SDS011;3968;51.424;6.788;2023-02-28T02:13:19;6.80;;;5.00;;
7845;SDS011;3968;51.424;6.788;2023-02-28T02:26:33;8.83;;;4.63;;
7845;SDS011;3968;51.424;6.788;2023-02-28T02:32:20;6.93;;;3.80;;
7845;SDS011;3968;51.424;6.788;2023-02-28T02:35:21;6.83;;;4.67;;
7845;SDS011;3968;51.424;6.788;2023-02-28T02:38:16;8.10;;;4.57;;
7845;SDS011;3968;51.424;6.788;2023-02-28T02:40:44;7.97;;;4.50;;
7845;SDS011;3968;51.424;6.788;2023-02-28T02:46:35;5.33;;;3.77;;
7845;SDS011;3968;51.424;6.788;2023-02-28T02:49:08;5.87;;;4.53;;
7845;SDS011;3968;51.424;6.788;2023-02-28T02:51:37;5.63;;;4.00;;
7845;SDS011;3968;51.424;6.788;2023-02-28T02:54:07;4.37;;;3.70;;
7845;SDS011;3968;51.424;6.788;2023-02-28T02:56:37;6.53;;;3.67;;
7845;SDS011;3968;51.424;6.788;2023-02-28T02:59:07;6.63;;;4.03;;
7845;SDS011;3968;51.424;6.788;2023-02-28T03:01:36;5.43;;;3.67;;
7845;SDS011;3968;51.424;6.788;2023-02-28T03:04:13;6.83;;;4.27;;
7845;SDS011;3968;51.424;6.788;2023-02-28T03:06:44;6.20;;;4.20;;
7845;SDS011;3968;51.424;6.788;2023-02-28T03:09:09;6.63;;;4.27;;
7845;SDS011;3968;51.424;6.788;2023-02-28T03:11:35;6.43;;;4.20;;
7845;SDS011;3968;51.424;6.788;2023-02-28T03:16:54;5.23;;;4.40;;
7845;SDS011;3968;51.424;6.788;2023-02-28T03:28:12;6.13;;;3.77;;
7845;SDS011;3968;51.424;6.788;2023-02-28T03:33:36;5.10;;;4.10;;
7845;SDS011;3968;51.424;6.788;2023-02-28T03:36:11;5.90;;;4.00;;
7845;SDS011;3968;51.424;6.788;2023-02-28T03:38:46;6.93;;;4.23;;
7845;SDS011;3968;51.424;6.788;2023-02-28T03:41:22;6.33;;;4.00;;
7845;SDS011;3968;51.424;6.788;2023-02-28T03:43:58;7.57;;;4.43;;
7845;SDS011;3968;51.424;6.788;2023-02-28T03:46:31;5.53;;;4.20;;
7845;SDS011;3968;51.424;6.788;2023-02-28T03:51:30;7.13;;;4.57;;
7845;SDS011;3968;51.424;6.788;2023-02-28T03:53:59;10.53;;;5.13;;
7845;SDS011;3968;51.424;6.788;2023-02-28T03:56:34;6.33;;;3.90;;
7845;SDS011;3968;51.424;6.788;2023-02-28T03:59:15;5.40;;;3.87;;
7845;SDS011;3968;51.424;6.788;2023-02-28T04:01:45;6.83;;;4.13;;
7845;SDS011;3968;51.424;6.788;2023-02-28T04:04:14;6.47;;;4.40;;
7845;SDS011;3968;51.424;6.788;2023-02-28T04:06:40;8.10;;;4.63;;
7845;SDS011;3968;51.424;6.788;2023-02-28T04:09:07;7.40;;;4.50;;
7845;SDS011;3968;51.424;6.788;2023-02-28T04:11:38;6.37;;;4.43;;
7845;SDS011;3968;51.424;6.788;2023-02-28T04:14:06;5.90;;;4.20;;
7845;SDS011;3968;51.424;6.788;2023-02-28T04:16:34;8.47;;;4.53;;
7845;SDS011;3968;51.424;6.788;2023-02-28T04:19:05;6.87;;;4.47;;
7845;SDS011;3968;51.424;6.788;2023-02-28T04:21:33;6.47;;;4.37;;
7845;SDS011;3968;51.424;6.788;2023-02-28T04:24:10;8.97;;;4.70;;
7845;SDS011;3968;51.424;6.788;2023-02-28T04:26:47;8.33;;;4.93;;
7845;SDS011;3968;51.424;6.788;2023-02-28T04:29:18;8.97;;;5.03;;
7845;SDS011;3968;51.424;6.788;2023-02-28T04:31:54;9.53;;;5.00;;
7845;SDS011;3968;51.424;6.788;2023-02-28T04:34:22;7.73;;;5.63;;
7845;SDS011;3968;51.424;6.788;2023-02-28T04:36:49;9.30;;;5.43;;
7845;SDS011;3968;51.424;6.788;2023-02-28T04:39:15;11.97;;;5.60;;
7845;SDS011;3968;51.424;6.788;2023-02-28T04:41:43;7.67;;;5.03;;
7845;SDS011;3968;51.424;6.788;2023-02-28T04:44:09;7.50;;;5.10;;
7845;SDS011;3968;51.424;6.788;2023-02-28T04:46:35;7.30;;;5.03;;
7845;SDS011;3968;51.424;6.788;2023-02-28T04:49:00;8.13;;;4.73;;
7845;SDS011;3968;51.424;6.788;2023-02-28T04:51:26;10.23;;;5.57;;
7845;SDS011;3968;51.424;6.788;2023-02-28T04:53:52;7.57;;;5.60;;
7845;SDS011;3968;51.424;6.788;2023-02-28T04:56:18;8.87;;;5.70;;
7845;SDS011;3968;51.424;6.788;2023-02-28T04:58:44;7.27;;;5.13;;
7845;SDS011;3968;51.424;6.788;2023-02-28T05:01:17;6.47;;;4.47;;
7845;SDS011;3968;51.424;6.788;2023-02-28T05:03:43;8.33;;;4.90;;
7845;SDS011;3968;51.424;6.788;2023-02-28T05:06:09;7.37;;;4.87;;
7845;SDS011;3968;51.424;6.788;2023-02-28T05:08:36;5.87;;;4.53;;
7845;SDS011;3968;51.424;6.788;2023-02-28T05:11:02;7.50;;;4.73;;
7845;SDS011;3968;51.424;6.788;2023-02-28T05:13:28;8.00;;;5.03;;
7845;SDS011;3968;51.424;6.788;2023-02-28T05:15:54;8.53;;;4.90;;
7845;SDS011;3968;51.424;6.788;2023-02-28T05:18:20;7.10;;;4.53;;
7845;SDS011;3968;51.424;6.788;2023-02-28T05:20:46;7.93;;;3.93;;
7845;SDS011;3968;51.424;6.788;2023-02-28T05:23:12;6.73;;;4.33;;
7845;SDS011;3968;51.424;6.788;2023-02-28T05:25:39;5.57;;;4.17;;
7845;SDS011;3968;51.424;6.788;2023-02-28T05:28:05;4.23;;;3.63;;
7845;SDS011;3968;51.424;6.788;2023-02-28T05:30:31;11.37;;;5.43;;
7845;SDS011;3968;51.424;6.788;2023-02-28T05:32:57;6.03;;;4.73;;
7845;SDS011;3968;51.424;6.788;2023-02-28T05:35:23;8.90;;;4.30;;
7845;SDS011;3968;51.424;6.788;2023-02-28T05:37:50;6.00;;;4.00;;
7845;SDS011;3968;51.424;6.788;2023-02-28T05:40:16;6.20;;;4.40;;
7845;SDS011;3968;51.424;6.788;2023-02-28T05:42:42;7.77;;;4.87;;
7845;SDS011;3968;51.424;6.788;2023-02-28T05:45:08;6.27;;;4.13;;
7845;SDS011;3968;51.424;6.788;2023-02-28T05:47:34;6.40;;;4.07;;
7845;SDS011;3968;51.424;6.788;2023-02-28T05:50:00;7.03;;;4.00;;
7845;SDS011;3968;51.424;6.788;2023-02-28T05:52:27;6.37;;;4.00;;
7845;SDS011;3968;51.424;6.788;2023-02-28T05:54:55;6.80;;;3.73;;
7845;SDS011;3968;51.424;6.788;2023-02-28T05:57:21;6.60;;;3.57;;
7845;SDS011;3968;51.424;6.788;2023-02-28T05:59:46;5.37;;;3.67;;
7845;SDS011;3968;51.424;6.788;2023-02-28T06:02:13;7.13;;;3.70;;
7845;SDS011;3968;51.424;6.788;2023-02-28T06:04:40;6.43;;;3.90;;
7845;SDS011;3968;51.424;6.788;2023-02-28T06:07:06;8.93;;;4.43;;
7845;SDS011;3968;51.424;6.788;2023-02-28T06:09:32;7.03;;;5.10;;
7845;SDS011;3968;51.424;6.788;2023-02-28T06:11:58;7.20;;;4.07;;
7845;SDS011;3968;51.424;6.788;2023-02-28T06:14:25;5.03;;;3.37;;
7845;SDS011;3968;51.424;6.788;2023-02-28T06:16:51;6.10;;;3.93;;
7845;SDS011;3968;51.424;6.788;2023-02-28T06:19:17;5.33;;;3.90;;
7845;SDS011;3968;51.424;6.788;2023-02-28T06:21:43;4.73;;;3.57;;
7845;SDS011;3968;51.424;6.788;2023-02-28T06:24:08;6.47;;;4.17;;
7845;SDS011;3968;51.424;6.788;2023-02-28T06:26:34;6.37;;;3.80;;
7845;SDS011;3968;51.424;6.788;2023-02-28T06:29:00;4.80;;;3.50;;
7845;SDS011;3968;51.424;6.788;2023-02-28T06:31:26;4.50;;;3.50;;
7845;SDS011;3968;51.424;6.788;2023-02-28T06:33:54;4.97;;;3.63;;
7845;SDS011;3968;51.424;6.788;2023-02-28T06:36:20;6.13;;;3.70;;
7845;SDS011;3968;51.424;6.788;2023-02-28T06:38:46;4.20;;;3.53;;
7845;SDS011;3968;51.424;6.788;2023-02-28T06:41:16;7.67;;;4.17;;
7845;SDS011;3968;51.424;6.788;2023-02-28T06:43:42;11.03;;;6.90;;
7845;SDS011;3968;51.424;6.788;2023-02-28T06:46:08;5.20;;;3.60;;
7845;SDS011;3968;51.424;6.788;2023-02-28T06:48:36;4.03;;;3.57;;
7845;SDS011;3968;51.424;6.788;2023-02-28T06:51:03;4.30;;;3.60;;
7845;SDS011;3968;51.424;6.788;2023-02-28T06:53:34;5.57;;;3.80;;
7845;SDS011;3968;51.424;6.788;2023-02-28T06:56:04;4.47;;;3.60;;
7845;SDS011;3968;51.424;6.788;2023-02-28T06:58:31;7.47;;;3.40;;
7845;SDS011;3968;51.424;6.788;2023-02-28T07:00:57;5.13;;;3.53;;
7845;SDS011;3968;51.424;6.788;2023-02-28T07:03:22;4.90;;;3.67;;
7845;SDS011;3968;51.424;6.788;2023-02-28T07:05:48;5.27;;;3.47;;
7845;SDS011;3968;51.424;6.788;2023-02-28T07:08:13;8.00;;;3.37;;
7845;SDS011;3968;51.424;6.788;2023-02-28T07:10:40;6.60;;;3.13;;
7845;SDS011;3968;51.424;6.788;2023-02-28T07:13:06;6.13;;;3.37;;
7845;SDS011;3968;51.424;6.788;2023-02-28T07:15:33;8.40;;;3.77;;
7845;SDS011;3968;51.424;6.788;2023-02-28T07:17:59;8.73;;;4.03;;
7845;SDS011;3968;51.424;6.788;2023-02-28T07:20:24;8.73;;;6.07;;
7845;SDS011;3968;51.424;6.788;2023-02-28T07:22:50;7.73;;;4.60;;
7845;SDS011;3968;51.424;6.788;2023-02-28T07:25:20;6.27;;;3.70;;
7845;SDS011;3968;51.424;6.788;2023-02-28T07:27:47;5.73;;;3.73;;
7845;SDS011;3968;51.424;6.788;2023-02-28T07:30:12;8.27;;;4.00;;
7845;SDS011;3968;51.424;6.788;2023-02-28T07:32:38;8.63;;;4.37;;
7845;SDS011;3968;51.424;6.788;2023-02-28T07:35:04;4.80;;;3.73;;
7845;SDS011;3968;51.424;6.788;2023-02-28T07:37:30;5.13;;;4.30;;
7845;SDS011;3968;51.424;6.788;2023-02-28T07:40:02;5.83;;;4.00;;
7845;SDS011;3968;51.424;6.788;2023-02-28T07:42:31;9.50;;;4.30;;
7845;SDS011;3968;51.424;6.788;2023-02-28T07:44:57;4.27;;;3.57;;
7845;SDS011;3968;51.424;6.788;2023-02-28T07:47:24;7.10;;;4.10;;
7845;SDS011;3968;51.424;6.788;2023-02-28T07:49:50;6.30;;;3.93;;
7845;SDS011;3968;51.424;6.788;2023-02-28T07:52:15;6.57;;;4.07;;
7845;SDS011;3968;51.424;6.788;2023-02-28T07:54:41;4.37;;;3.70;;
7845;SDS011;3968;51.424;6.788;2023-02-28T07:57:07;5.47;;;3.73;;
7845;SDS011;3968;51.424;6.788;2023-02-28T07:59:32;5.60;;;3.67;;
7845;SDS011;3968;51.424;6.788;2023-02-28T08:01:58;6.60;;;4.03;;
7845;SDS011;3968;51.424;6.788;2023-02-28T08:04:24;8.87;;;3.70;;
7845;SDS011;3968;51.424;6.788;2023-02-28T08:06:50;5.17;;;3.67;;
7845;SDS011;3968;51.424;6.788;2023-02-28T08:09:19;5.60;;;3.47;;
7845;SDS011;3968;51.424;6.788;2023-02-28T08:11:45;7.47;;;3.80;;
7845;SDS011;3968;51.424;6.788;2023-02-28T08:14:10;8.87;;;3.73;;
7845;SDS011;3968;51.424;6.788;2023-02-28T08:16:36;5.63;;;3.77;;
7845;SDS011;3968;51.424;6.788;2023-02-28T08:19:02;5.83;;;3.77;;
7845;SDS011;3968;51.424;6.788;2023-02-28T08:21:27;4.60;;;3.73;;
7845;SDS011;3968;51.424;6.788;2023-02-28T08:23:53;3.73;;;3.20;;
7845;SDS011;3968;51.424;6.788;2023-02-28T08:26:19;4.97;;;3.50;;
7845;SDS011;3968;51.424;6.788;2023-02-28T08:28:45;5.70;;;3.43;;
7845;SDS011;3968;51.424;6.788;2023-02-28T08:31:12;4.57;;;3.43;;
7845;SDS011;3968;51.424;6.788;2023-02-28T08:33:39;4.93;;;3.43;;
7845;SDS011;3968;51.424;6.788;2023-02-28T08:36:06;4.03;;;3.23;;
7845;SDS011;3968;51.424;6.788;2023-02-28T08:38:32;3.77;;;3.30;;
7845;SDS011;3968;51.424;6.788;2023-02-28T08:40:59;4.83;;;3.57;;
7845;SDS011;3968;51.424;6.788;2023-02-28T08:43:26;4.13;;;2.93;;
7845;SDS011;3968;51.424;6.788;2023-02-28T08:45:53;4.30;;;3.40;;
7845;SDS011;3968;51.424;6.788;2023-02-28T08:48:21;4.50;;;3.30;;
7845;SDS011;3968;51.424;6.788;2023-02-28T08:53:23;3.60;;;3.30;;
7845;SDS011;3968;51.424;6.788;2023-02-28T08:55:55;4.33;;;3.10;;
7845;SDS011;3968;51.424;6.788;2023-02-28T08:58:31;3.93;;;2.90;;
7845;SDS011;3968;51.424;6.788;2023-02-28T09:00:58;8.83;;;3.53;;
7845;SDS011;3968;51.424;6.788;2023-02-28T09:03:24;5.10;;;2.97;;
7845;SDS011;3968;51.424;6.788;2023-02-28T09:05:56;4.63;;;2.97;;
7845;SDS011;3968;51.424;6.788;2023-02-28T09:08:24;6.37;;;3.20;;
7845;SDS011;3968;51.424;6.788;2023-02-28T09:10:51;4.10;;;3.17;;
7845;SDS011;3968;51.424;6.788;2023-02-28T09:13:17;6.37;;;3.30;;
7845;SDS011;3968;51.424;6.788;2023-02-28T09:15:43;3.80;;;3.00;;
7845;SDS011;3968;51.424;6.788;2023-02-28T09:18:09;5.10;;;3.23;;
7845;SDS011;3968;51.424;6.788;2023-02-28T09:20:37;3.63;;;3.00;;
7845;SDS011;3968;51.424;6.788;2023-02-28T09:23:03;4.07;;;3.00;;
7845;SDS011;3968;51.424;6.788;2023-02-28T09:25:29;4.23;;;3.30;;
7845;SDS011;3968;51.424;6.788;2023-02-28T09:27:54;5.73;;;3.17;;
7845;SDS011;3968;51.424;6.788;2023-02-28T09:30:20;4.03;;;2.93;;
7845;SDS011;3968;51.424;6.788;2023-02-28T09:32:45;4.07;;;2.83;;
7845;SDS011;3968;51.424;6.788;2023-02-28T09:35:17;3.30;;;3.00;;
7845;SDS011;3968;51.424;6.788;2023-02-28T09:37:43;6.17;;;2.83;;
7845;SDS011;3968;51.424;6.788;2023-02-28T09:40:09;4.57;;;2.80;;
7845;SDS011;3968;51.424;6.788;2023-02-28T09:42:37;3.53;;;2.80;;
7845;SDS011;3968;51.424;6.788;2023-02-28T09:45:06;4.20;;;3.20;;
7845;SDS011;3968;51.424;6.788;2023-02-28T09:47:58;4.10;;;2.77;;
7845;SDS011;3968;51.424;6.788;2023-02-28T09:53:16;2.93;;;2.63;;
7845;SDS011;3968;51.424;6.788;2023-02-28T09:55:46;3.00;;;2.70;;
7845;SDS011;3968;51.424;6.788;2023-02-28T09:58:20;6.50;;;3.03;;
7845;SDS011;3968;51.424;6.788;2023-02-28T10:01:03;3.63;;;3.13;;
7845;SDS011;3968;51.424;6.788;2023-02-28T10:03:48;6.03;;;2.60;;
7845;SDS011;3968;51.424;6.788;2023-02-28T10:06:23;3.57;;;2.87;;
7845;SDS011;3968;51.424;6.788;2023-02-28T10:08:58;3.53;;;2.50;;
7845;SDS011;3968;51.424;6.788;2023-02-28T10:11:28;4.97;;;3.07;;
7845;SDS011;3968;51.424;6.788;2023-02-28T10:14:32;4.10;;;2.90;;
7845;SDS011;3968;51.424;6.788;2023-02-28T10:22:24;2.53;;;2.33;;
7845;SDS011;3968;51.424;6.788;2023-02-28T10:24:55;10.23;;;4.83;;
7845;SDS011;3968;51.424;6.788;2023-02-28T10:27:26;4.53;;;3.50;;
7845;SDS011;3968;51.424;6.788;2023-02-28T10:29:55;4.43;;;3.23;;
7845;SDS011;3968;51.424;6.788;2023-02-28T10:32:25;4.20;;;2.90;;
7845;SDS011;3968;51.424;6.788;2023-02-28T10:35:01;3.40;;;2.60;;
7845;SDS011;3968;51.424;6.788;2023-02-28T10:37:37;4.43;;;2.83;;
7845;SDS011;3968;51.424;6.788;2023-02-28T10:40:25;3.73;;;2.43;;
7845;SDS011;3968;51.424;6.788;2023-02-28T10:42:55;8.87;;;6.10;;
7845;SDS011;3968;51.424;6.788;2023-02-28T10:45:29;5.57;;;2.73;;
7845;SDS011;3968;51.424;6.788;2023-02-28T10:48:05;3.33;;;2.40;;
7845;SDS011;3968;51.424;6.788;2023-02-28T10:50:51;2.50;;;2.10;;
7845;SDS011;3968;51.424;6.788;2023-02-28T10:55:57;5.17;;;2.37;;
7845;SDS011;3968;51.424;6.788;2023-02-28T11:01:42;4.33;;;2.87;;
7845;SDS011;3968;51.424;6.788;2023-02-28T11:06:59;2.77;;;2.30;;
7845;SDS011;3968;51.424;6.788;2023-02-28T11:09:36;2.70;;;2.30;;
7845;SDS011;3968;51.424;6.788;2023-02-28T11:12:10;2.57;;;2.30;;
7845;SDS011;3968;51.424;6.788;2023-02-28T11:14:51;5.30;;;2.00;;
7845;SDS011;3968;51.424;6.788;2023-02-28T11:17:23;2.57;;;2.27;;
7845;SDS011;3968;51.424;6.788;2023-02-28T11:19:52;2.70;;;2.17;;
7845;SDS011;3968;51.424;6.788;2023-02-28T11:22:26;3.77;;;1.93;;
7845;SDS011;3968;51.424;6.788;2023-02-28T11:24:57;2.63;;;2.00;;
7845;SDS011;3968;51.424;6.788;2023-02-28T11:30:00;2.57;;;2.30;;
7845;SDS011;3968;51.424;6.788;2023-02-28T11:32:26;5.03;;;2.10;;
7845;SDS011;3968;51.424;6.788;2023-02-28T11:35:40;4.13;;;2.07;;
7845;SDS011;3968;51.424;6.788;2023-02-28T11:37:54;2.67;;;2.10;;
7845;SDS011;3968;51.424;6.788;2023-02-28T11:40:26;2.33;;;1.97;;
7845;SDS011;3968;51.424;6.788;2023-02-28T11:46:07;2.90;;;2.40;;
7845;SDS011;3968;51.424;6.788;2023-02-28T11:49:01;3.10;;;2.30;;
7845;SDS011;3968;51.424;6.788;2023-02-28T11:51:45;3.67;;;1.87;;
7845;SDS011;3968;51.424;6.788;2023-02-28T11:57:27;2.90;;;2.07;;
7845;SDS011;3968;51.424;6.788;2023-02-28T12:02:30;4.73;;;1.97;;
7845;SDS011;3968;51.424;6.788;2023-02-28T12:07:50;2.63;;;2.10;;
7845;SDS011;3968;51.424;6.788;2023-02-28T12:10:35;3.47;;;2.40;;
7845;SDS011;3968;51.424;6.788;2023-02-28T12:13:21;4.07;;;2.70;;
7845;SDS011;3968;51.424;6.788;2023-02-28T12:21:11;4.17;;;2.30;;
7845;SDS011;3968;51.424;6.788;2023-02-28T12:29:12;3.30;;;2.80;;
7845;SDS011;3968;51.424;6.788;2023-02-28T12:32:09;2.60;;;2.37;;
7845;SDS011;3968;51.424;6.788;2023-02-28T12:34:51;4.67;;;3.00;;
7845;SDS011;3968;51.424;6.788;2023-02-28T12:37:25;2.73;;;2.30;;
7845;SDS011;3968;51.424;6.788;2023-02-28T12:40:03;4.23;;;2.50;;
7845;SDS011;3968;51.424;6.788;2023-02-28T12:42:32;3.37;;;2.67;;
7845;SDS011;3968;51.424;6.788;2023-02-28T12:45:12;2.80;;;2.60;;
7845;SDS011;3968;51.424;6.788;2023-02-28T12:47:46;4.07;;;2.50;;
7845;SDS011;3968;51.424;6.788;2023-02-28T12:50:17;8.50;;;3.70;;
7845;SDS011;3968;51.424;6.788;2023-02-28T12:58:05;4.37;;;3.27;;
7845;SDS011;3968;51.424;6.788;2023-02-28T13:07:46;3.00;;;2.70;;
7845;SDS011;3968;51.424;6.788;2023-02-28T13:10:00;2.97;;;2.67;;
7845;SDS011;3968;51.424;6.788;2023-02-28T13:12:31;5.70;;;3.47;;
7845;SDS011;3968;51.424;6.788;2023-02-28T13:17:44;2.83;;;2.53;;
7845;SDS011;3968;51.424;6.788;2023-02-28T13:20:15;3.30;;;2.80;;
7845;SDS011;3968;51.424;6.788;2023-02-28T13:22:44;3.67;;;2.80;;
7845;SDS011;3968;51.424;6.788;2023-02-28T13:27:47;3.80;;;2.60;;
7845;SDS011;3968;51.424;6.788;2023-02-28T13:33:31;3.17;;;2.87;;
7845;SDS011;3968;51.424;6.788;2023-02-28T13:38:50;2.87;;;2.57;;
7845;SDS011;3968;51.424;6.788;2023-02-28T13:42:05;3.00;;;2.70;;
7845;SDS011;3968;51.424;6.788;2023-02-28T13:44:08;4.70;;;2.97;;
7845;SDS011;3968;51.424;6.788;2023-02-28T13:52:30;4.33;;;3.07;;
7845;SDS011;3968;51.424;6.788;2023-02-28T14:05:40;6.10;;;3.30;;
7845;SDS011;3968;51.424;6.788;2023-02-28T14:08:08;8.10;;;3.47;;
7845;SDS011;3968;51.424;6.788;2023-02-28T14:10:45;4.93;;;3.37;;
7845;SDS011;3968;51.424;6.788;2023-02-28T14:16:02;3.73;;;2.93;;
7845;SDS011;3968;51.424;6.788;2023-02-28T14:18:32;3.90;;;3.50;;
7845;SDS011;3968;51.424;6.788;2023-02-28T14:21:09;4.17;;;3.30;;
7845;SDS011;3968;51.424;6.788;2023-02-28T14:26:14;7.50;;;3.57;;
7845;SDS011;3968;51.424;6.788;2023-02-28T14:31:37;4.43;;;3.70;;
7845;SDS011;3968;51.424;6.788;2023-02-28T14:36:43;3.67;;;3.33;;
7845;SDS011;3968;51.424;6.788;2023-02-28T14:41:40;4.13;;;3.30;;
7845;SDS011;3968;51.424;6.788;2023-02-28T14:46:43;3.73;;;3.30;;
7845;SDS011;3968;51.424;6.788;2023-02-28T14:52:06;5.60;;;3.50;;
7845;SDS011;3968;51.424;6.788;2023-02-28T14:54:37;6.37;;;3.67;;
7845;SDS011;3968;51.424;6.788;2023-02-28T14:57:04;5.03;;;3.67;;
7845;SDS011;3968;51.424;6.788;2023-02-28T14:59:34;4.47;;;3.90;;
7845;SDS011;3968;51.424;6.788;2023-02-28T15:07:42;5.47;;;3.60;;
7845;SDS011;3968;51.424;6.788;2023-02-28T15:10:18;3.83;;;3.10;;
7845;SDS011;3968;51.424;6.788;2023-02-28T15:12:54;4.70;;;3.07;;
7845;SDS011;3968;51.424;6.788;2023-02-28T15:15:27;4.00;;;3.60;;
7845;SDS011;3968;51.424;6.788;2023-02-28T15:18:16;7.83;;;5.50;;
7845;SDS011;3968;51.424;6.788;2023-02-28T15:21:03;4.20;;;3.80;;
7845;SDS011;3968;51.424;6.788;2023-02-28T15:23:32;6.17;;;3.67;;
7845;SDS011;3968;51.424;6.788;2023-02-28T15:26:01;3.67;;;3.20;;
7845;SDS011;3968;51.424;6.788;2023-02-28T15:28:27;6.27;;;3.23;;
7845;SDS011;3968;51.424;6.788;2023-02-28T15:33:28;4.87;;;3.60;;
7845;SDS011;3968;51.424;6.788;2023-02-28T15:36:05;6.73;;;3.40;;
7845;SDS011;3968;51.424;6.788;2023-02-28T15:38:46;4.10;;;3.67;;
7845;SDS011;3968;51.424;6.788;2023-02-28T15:41:21;4.00;;;3.60;;
7845;SDS011;3968;51.424;6.788;2023-02-28T15:49:49;3.50;;;3.20;;
7845;SDS011;3968;51.424;6.788;2023-02-28T15:52:24;4.53;;;3.50;;
7845;SDS011;3968;51.424;6.788;2023-02-28T15:54:57;6.37;;;3.70;;
7845;SDS011;3968;51.424;6.788;2023-02-28T15:57:25;3.50;;;3.20;;
7845;SDS011;3968;51.424;6.788;2023-02-28T15:59:56;4.87;;;3.37;;
7845;SDS011;3968;51.424;6.788;2023-02-28T16:02:32;3.90;;;3.53;;
7845;SDS011;3968;51.424;6.788;2023-02-28T16:05:19;3.57;;;3.17;;
7845;SDS011;3968;51.424;6.788;2023-02-28T16:07:46;5.23;;;3.83;;
7845;SDS011;3968;51.424;6.788;2023-02-28T16:10:13;4.70;;;3.97;;
7845;SDS011;3968;51.424;6.788;2023-02-28T16:12:39;3.93;;;3.47;;
7845;SDS011;3968;51.424;6.788;2023-02-28T16:15:07;6.60;;;3.43;;
7845;SDS011;3968;51.424;6.788;2023-02-28T16:17:41;6.17;;;3.73;;
7845;SDS011;3968;51.424;6.788;2023-02-28T16:22:41;3.77;;;3.37;;
7845;SDS011;3968;51.424;6.788;2023-02-28T16:25:10;3.70;;;3.23;;
7845;SDS011;3968;51.424;6.788;2023-02-28T16:27:37;5.50;;;3.40;;
7845;SDS011;3968;51.424;6.788;2023-02-28T16:30:04;3.93;;;3.30;;
7845;SDS011;3968;51.424;6.788;2023-02-28T16:32:40;5.27;;;3.60;;
7845;SDS011;3968;51.424;6.788;2023-02-28T16:35:09;4.00;;;3.60;;
7845;SDS011;3968;51.424;6.788;2023-02-28T16:37:35;4.37;;;3.30;;
7845;SDS011;3968;51.424;6.788;2023-02-28T16:40:02;3.87;;;3.27;;
7845;SDS011;3968;51.424;6.788;2023-02-28T16:42:28;5.70;;;3.30;;
7845;SDS011;3968;51.424;6.788;2023-02-28T16:44:55;5.17;;;3.90;;
7845;SDS011;3968;51.424;6.788;2023-02-28T16:47:22;5.37;;;3.93;;
7845;SDS011;3968;51.424;6.788;2023-02-28T16:49:48;4.13;;;3.37;;
7845;SDS011;3968;51.424;6.788;2023-02-28T16:52:14;5.43;;;3.53;;
7845;SDS011;3968;51.424;6.788;2023-02-28T16:54:41;4.20;;;3.63;;
7845;SDS011;3968;51.424;6.788;2023-02-28T16:57:12;6.13;;;4.13;;
7845;SDS011;3968;51.424;6.788;2023-02-28T16:59:46;7.03;;;4.53;;
7845;SDS011;3968;51.424;6.788;2023-02-28T17:02:13;4.40;;;3.87;;
7845;SDS011;3968;51.424;6.788;2023-02-28T17:04:39;6.70;;;4.23;;
7845;SDS011;3968;51.424;6.788;2023-02-28T17:07:08;4.97;;;4.47;;
7845;SDS011;3968;51.424;6.788;2023-02-28T17:09:37;4.33;;;3.83;;
7845;SDS011;3968;51.424;6.788;2023-02-28T17:12:03;4.20;;;3.47;;
7845;SDS011;3968;51.424;6.788;2023-02-28T17:14:29;4.40;;;3.47;;
7845;SDS011;3968;51.424;6.788;2023-02-28T17:16:54;6.20;;;4.07;;
7845;SDS011;3968;51.424;6.788;2023-02-28T17:19:20;5.53;;;3.60;;
7845;SDS011;3968;51.424;6.788;2023-02-28T17:21:46;4.27;;;3.77;;
7845;SDS011;3968;51.424;6.788;2023-02-28T17:24:11;6.63;;;4.00;;
7845;SDS011;3968;51.424;6.788;2023-02-28T17:26:38;5.60;;;3.63;;
7845;SDS011;3968;51.424;6.788;2023-02-28T17:29:09;4.27;;;3.20;;
7845;SDS011;3968;51.424;6.788;2023-02-28T17:31:40;4.40;;;3.53;;
7845;SDS011;3968;51.424;6.788;2023-02-28T17:34:06;4.90;;;3.93;;
7845;SDS011;3968;51.424;6.788;2023-02-28T17:36:31;4.33;;;3.70;;
7845;SDS011;3968;51.424;6.788;2023-02-28T17:38:58;3.67;;;3.23;;
7845;SDS011;3968;51.424;6.788;2023-02-28T17:41:25;5.40;;;3.90;;
7845;SDS011;3968;51.424;6.788;2023-02-28T17:43:51;5.30;;;3.63;;
7845;SDS011;3968;51.424;6.788;2023-02-28T17:46:21;4.30;;;3.60;;
7845;SDS011;3968;51.424;6.788;2023-02-28T17:48:49;5.00;;;3.73;;
7845;SDS011;3968;51.424;6.788;2023-02-28T17:51:16;6.77;;;4.20;;
7845;SDS011;3968;51.424;6.788;2023-02-28T17:53:43;6.63;;;3.90;;
7845;SDS011;3968;51.424;6.788;2023-02-28T17:56:17;4.43;;;3.30;;
7845;SDS011;3968;51.424;6.788;2023-02-28T17:58:45;5.33;;;4.03;;
7845;SDS011;3968;51.424;6.788;2023-02-28T18:01:11;5.20;;;4.17;;
7845;SDS011;3968;51.424;6.788;2023-02-28T18:03:37;6.30;;;4.57;;
7845;SDS011;3968;51.424;6.788;2023-02-28T18:06:03;4.67;;;3.90;;
7845;SDS011;3968;51.424;6.788;2023-02-28T18:08:29;5.33;;;3.80;;